Time;durP1;ratioP1;P1;durP2;ratioP2;P2;SDS_P1;SDS_P2;PMS_P1;PMS_P2;Temp;Humidity;BMP_temperature;BMP_pressure;BME280_temperature;BME280_humidity;BME280_pressure;Samples;Min_cycle;Max_cycle;Signal;HPM_P1;HPM_P2
2020/12/08 00:00:34;;;;;;;24.13;13.70;;;7.20;73.90;;;;;;5019903;28;20025;-66
2020/12/08 00:02:59;;;;;;;26.40;15.23;;;7.20;73.80;;;;;;5020502;28;20037;-66
2020/12/08 00:05:25;;;;;;;25.97;14.90;;;7.20;73.70;;;;;;5010415;28;20088;-66
2020/12/08 00:07:51;;;;;;;23.80;14.23;;;7.20;73.80;;;;;;5016017;28;20049;-66
2020/12/08 00:10:20;;;;;;;23.87;13.87;;;7.20;73.80;;;;;;5016490;28;20105;-66
2020/12/08 00:12:50;;;;;;;23.37;14.03;;;7.20;73.70;;;;;;4999768;28;20026;-66
2020/12/08 00:15:17;;;;;;;22.87;14.80;;;7.20;73.70;;;;;;5019923;28;20175;-67
2020/12/08 00:17:44;;;;;;;23.03;14.40;;;7.20;73.80;;;;;;5021104;28;20030;-66
2020/12/08 00:20:10;;;;;;;23.77;13.77;;;7.20;73.80;;;;;;5016764;28;20076;-66
2020/12/08 00:22:37;;;;;;;24.63;14.67;;;7.20;73.80;;;;;;5010809;28;20033;-66
2020/12/08 00:25:07;;;;;;;20.07;12.63;;;7.30;73.80;;;;;;5024733;28;20583;-66
2020/12/08 00:27:34;;;;;;;23.03;14.57;;;7.40;73.80;;;;;;5016535;28;20463;-67
2020/12/08 00:30:00;;;;;;;23.90;15.33;;;7.40;73.70;;;;;;5024287;28;20428;-66
2020/12/08 00:32:25;;;;;;;23.95;14.80;;;7.50;73.70;;;;;;5014415;28;20107;-66
2020/12/08 00:34:51;;;;;;;25.27;14.73;;;7.50;73.80;;;;;;5016496;28;20099;-66
2020/12/08 00:37:17;;;;;;;24.27;14.40;;;7.50;73.80;;;;;;5009990;28;20116;-66
2020/12/08 00:39:42;;;;;;;22.05;15.27;;;7.60;73.90;;;;;;5028879;28;20743;-67
2020/12/08 00:42:08;;;;;;;22.25;13.52;;;7.70;73.80;;;;;;4998303;28;20424;-66
2020/12/08 00:44:34;;;;;;;24.25;15.48;;;7.60;73.60;;;;;;5024161;28;20046;-66
2020/12/08 00:47:00;;;;;;;25.85;14.65;;;7.60;73.70;;;;;;5000900;28;20030;-66
2020/12/08 00:49:26;;;;;;;26.35;15.80;;;7.60;73.80;;;;;;5024055;28;20034;-66
2020/12/08 00:51:56;;;;;;;28.02;15.73;;;7.60;73.90;;;;;;5026232;28;20041;-66
2020/12/08 00:54:22;;;;;;;25.00;15.00;;;7.50;73.90;;;;;;5013330;28;20030;-66
2020/12/08 00:56:47;;;;;;;24.50;13.90;;;7.40;73.90;;;;;;5023073;28;20041;-66
2020/12/08 00:59:13;;;;;;;24.77;13.35;;;7.40;74.00;;;;;;5028150;28;20037;-67
2020/12/08 01:01:40;;;;;;;22.23;13.77;;;7.40;74.20;;;;;;5018712;28;20034;-66
2020/12/08 01:04:08;;;;;;;23.17;13.97;;;7.40;74.20;;;;;;5008592;28;20053;-66
2020/12/08 01:06:38;;;;;;;24.17;12.57;;;7.30;74.30;;;;;;5021803;28;20680;-66
2020/12/08 01:09:06;;;;;;;23.63;14.30;;;7.30;74.20;;;;;;5011950;28;20038;-67
2020/12/08 01:11:39;;;;;;;21.30;13.25;;;7.30;74.10;;;;;;5016110;28;20026;-66
2020/12/08 01:14:04;;;;;;;21.73;13.97;;;7.30;74.00;;;;;;5013763;28;20136;-66
2020/12/08 01:16:30;;;;;;;22.77;13.37;;;7.30;74.00;;;;;;5009812;28;20104;-67
2020/12/08 01:18:56;;;;;;;19.42;12.57;;;7.30;74.00;;;;;;5014331;28;20352;-66
2020/12/08 01:21:21;;;;;;;24.77;12.63;;;7.30;73.90;;;;;;4993965;28;20030;-66
2020/12/08 01:23:47;;;;;;;26.70;13.90;;;7.30;73.90;;;;;;5019747;28;20602;-66
2020/12/08 01:26:20;;;;;;;21.33;12.83;;;7.30;74.10;;;;;;5009759;28;20040;-66
2020/12/08 01:28:45;;;;;;;23.67;13.73;;;7.20;74.30;;;;;;5017000;28;20033;-66
2020/12/08 01:31:11;;;;;;;23.20;12.68;;;7.20;74.40;;;;;;5018964;28;20426;-66
2020/12/08 01:33:37;;;;;;;20.63;12.27;;;7.20;74.40;;;;;;5017928;28;20037;-66
2020/12/08 01:36:02;;;;;;;20.15;12.63;;;7.20;74.40;;;;;;5021173;28;20175;-66
2020/12/08 01:38:28;;;;;;;22.40;13.10;;;7.10;74.40;;;;;;5015196;28;20366;-66
2020/12/08 01:40:54;;;;;;;22.47;13.93;;;7.10;74.50;;;;;;5018970;28;20057;-66
2020/12/08 01:43:21;;;;;;;21.57;12.70;;;7.00;74.60;;;;;;5021189;28;20108;-67
2020/12/08 01:45:47;;;;;;;22.53;13.00;;;7.00;74.70;;;;;;5018130;28;20055;-66
2020/12/08 01:48:15;;;;;;;19.93;12.70;;;6.90;74.70;;;;;;5028749;28;20475;-67
2020/12/08 01:50:41;;;;;;;21.63;12.53;;;6.90;74.90;;;;;;5022218;28;20392;-66
2020/12/08 01:53:10;;;;;;;21.80;13.07;;;6.80;74.90;;;;;;5010342;28;20034;-67
2020/12/08 01:55:40;;;;;;;22.10;14.20;;;6.80;75.00;;;;;;5009700;28;20129;-66
2020/12/08 01:58:20;;;;;;;21.93;12.00;;;6.80;75.10;;;;;;5011721;28;20026;-67
2020/12/08 02:00:49;;;;;;;18.23;11.63;;;6.80;75.20;;;;;;5015883;28;20112;-66
2020/12/08 02:03:16;;;;;;;19.35;11.55;;;6.80;75.10;;;;;;5023165;28;20152;-67
2020/12/08 02:05:43;;;;;;;21.67;12.40;;;6.80;75.00;;;;;;5019225;28;20038;-67
2020/12/08 02:08:09;;;;;;;19.33;11.63;;;6.80;75.00;;;;;;5028774;28;20033;-66
2020/12/08 02:10:35;;;;;;;20.93;12.33;;;6.80;74.90;;;;;;5035573;28;20541;-67
2020/12/08 02:13:10;;;;;;;18.80;11.83;;;6.80;74.90;;;;;;5013105;28;20052;-66
2020/12/08 02:15:36;;;;;;;21.43;12.10;;;6.80;74.90;;;;;;5020030;28;20206;-67
2020/12/08 02:18:02;;;;;;;17.70;13.27;;;6.80;75.00;;;;;;5014707;28;20025;-66
2020/12/08 02:20:28;;;;;;;20.03;11.43;;;6.80;75.00;;;;;;5019951;28;20075;-66
2020/12/08 02:22:56;;;;;;;22.47;13.47;;;6.80;75.10;;;;;;5008117;28;20046;-68
2020/12/08 02:25:22;;;;;;;20.03;11.93;;;6.80;75.00;;;;;;5012689;28;20049;-67
2020/12/08 02:27:48;;;;;;;18.13;11.17;;;6.70;74.90;;;;;;5020956;28;20387;-66
2020/12/08 02:30:13;;;;;;;20.80;12.23;;;6.80;74.80;;;;;;5028559;28;20033;-66
2020/12/08 02:32:39;;;;;;;19.23;11.65;;;6.80;74.60;;;;;;5028216;28;20140;-67
2020/12/08 02:35:06;;;;;;;19.37;12.60;;;6.70;74.50;;;;;;5032852;28;20038;-66
2020/12/08 02:37:31;;;;;;;20.17;12.70;;;6.80;74.50;;;;;;5029053;28;20045;-66
2020/12/08 02:39:57;;;;;;;23.53;14.50;;;6.70;74.60;;;;;;5020893;28;20037;-66
2020/12/08 02:42:23;;;;;;;19.13;12.03;;;6.70;74.90;;;;;;5021190;28;20396;-66
2020/12/08 02:44:48;;;;;;;21.27;11.93;;;6.60;75.10;;;;;;5007187;28;20052;-66
2020/12/08 02:47:14;;;;;;;23.03;12.17;;;6.60;75.30;;;;;;5031874;28;20044;-67
2020/12/08 02:49:39;;;;;;;19.50;12.17;;;6.60;75.30;;;;;;5019943;28;20041;-67
2020/12/08 02:52:05;;;;;;;19.10;11.53;;;6.60;75.30;;;;;;5023884;28;20336;-66
2020/12/08 02:54:31;;;;;;;22.33;12.63;;;6.50;75.30;;;;;;5014569;28;20033;-67
2020/12/08 02:57:01;;;;;;;17.97;10.60;;;6.50;75.30;;;;;;5013506;28;20149;-66
2020/12/08 02:59:26;;;;;;;21.10;11.60;;;6.50;75.40;;;;;;5014347;28;20049;-66
2020/12/08 03:01:55;;;;;;;18.27;11.93;;;6.50;75.30;;;;;;5018867;28;20077;-66
2020/12/08 03:04:21;;;;;;;18.43;11.23;;;6.50;75.20;;;;;;5009918;28;20037;-67
2020/12/08 03:06:47;;;;;;;22.20;12.23;;;6.50;75.00;;;;;;5031379;28;20034;-66
2020/12/08 03:09:13;;;;;;;17.17;11.10;;;6.50;75.00;;;;;;5023674;28;20033;-66
2020/12/08 03:11:38;;;;;;;21.87;10.70;;;6.50;75.00;;;;;;5021727;28;20025;-67
2020/12/08 03:14:04;;;;;;;17.87;11.83;;;6.50;75.10;;;;;;5015510;28;20057;-66
2020/12/08 03:16:30;;;;;;;17.63;10.87;;;6.50;75.10;;;;;;5012421;28;20089;-66
2020/12/08 03:18:55;;;;;;;21.40;12.33;;;6.50;75.10;;;;;;5011205;28;20077;-66
2020/12/08 03:21:21;;;;;;;18.70;11.13;;;6.40;75.10;;;;;;5019722;28;20036;-66
2020/12/08 03:23:46;;;;;;;19.53;11.60;;;6.50;75.10;;;;;;5014967;28;20149;-66
2020/12/08 03:26:22;;;;;;;20.27;11.70;;;6.40;75.10;;;;;;5013809;28;20101;-66
2020/12/08 03:28:48;;;;;;;20.50;12.43;;;6.40;75.20;;;;;;5012504;28;20132;-66
2020/12/08 03:31:14;;;;;;;22.13;12.17;;;6.30;75.40;;;;;;5019587;28;20085;-66
2020/12/08 03:33:40;;;;;;;18.97;12.13;;;6.20;75.50;;;;;;5017518;28;20541;-66
2020/12/08 03:36:11;;;;;;;21.43;12.67;;;6.20;75.60;;;;;;5031893;28;20037;-66
2020/12/08 03:38:36;;;;;;;21.17;12.77;;;6.30;75.60;;;;;;5022011;28;20030;-66
2020/12/08 03:41:02;;;;;;;20.83;10.60;;;6.30;75.60;;;;;;5012700;28;20037;-66
2020/12/08 03:43:28;;;;;;;19.80;11.87;;;6.20;75.60;;;;;;4997656;28;20397;-66
2020/12/08 03:45:54;;;;;;;18.93;12.27;;;6.20;75.60;;;;;;5010559;28;20503;-66
2020/12/08 03:48:19;;;;;;;22.87;14.03;;;6.20;75.50;;;;;;5012699;28;20041;-66
2020/12/08 03:50:45;;;;;;;25.27;13.40;;;6.20;75.60;;;;;;5029393;28;20048;-66
2020/12/08 03:53:10;;;;;;;19.50;12.77;;;6.20;75.80;;;;;;5021343;28;20103;-66
2020/12/08 03:55:36;;;;;;;24.07;11.93;;;6.10;75.80;;;;;;5021054;28;20029;-66
2020/12/08 03:58:02;;;;;;;23.80;13.80;;;6.20;75.80;;;;;;5025640;28;20041;-67
2020/12/08 04:00:27;;;;;;;22.43;13.53;;;6.20;75.80;;;;;;5030915;28;20038;-66
2020/12/08 04:02:53;;;;;;;20.97;12.53;;;6.20;75.70;;;;;;5017581;28;20125;-66
2020/12/08 04:05:18;;;;;;;20.17;12.23;;;6.20;75.70;;;;;;5030283;28;20040;-66
2020/12/08 04:07:46;;;;;;;21.03;12.57;;;6.20;75.60;;;;;;5023718;28;20041;-66
2020/12/08 04:10:12;;;;;;;22.67;12.60;;;6.20;75.50;;;;;;5026922;28;20402;-66
2020/12/08 04:12:38;;;;;;;22.33;12.40;;;6.20;75.40;;;;;;5018922;28;20037;-66
2020/12/08 04:15:03;;;;;;;18.77;12.10;;;6.20;75.30;;;;;;5018039;28;20048;-66
2020/12/08 04:17:29;;;;;;;22.30;13.17;;;6.20;75.30;;;;;;5028776;28;20033;-67
2020/12/08 04:19:55;;;;;;;20.17;11.80;;;6.20;75.30;;;;;;5024052;28;20039;-66
2020/12/08 04:22:20;;;;;;;23.47;13.73;;;6.20;75.10;;;;;;5006519;28;20053;-66
2020/12/08 04:24:46;;;;;;;20.83;12.60;;;6.20;75.00;;;;;;5009766;28;20405;-66
2020/12/08 04:27:11;;;;;;;18.93;11.73;;;6.20;74.90;;;;;;5014346;28;20030;-66
2020/12/08 04:29:37;;;;;;;20.77;13.63;;;6.20;74.50;;;;;;5023540;28;20037;-66
2020/12/08 04:32:04;;;;;;;16.60;11.27;;;6.20;74.40;;;;;;5024678;28;20479;-66
2020/12/08 04:34:30;;;;;;;21.23;12.67;;;6.20;74.40;;;;;;5020000;28;20747;-67
2020/12/08 04:36:59;;;;;;;22.43;12.70;;;6.10;74.50;;;;;;5028220;28;20021;-67
2020/12/08 04:39:25;;;;;;;19.67;12.13;;;6.20;74.70;;;;;;5017499;28;20029;-67
2020/12/08 04:41:55;;;;;;;24.03;14.47;;;6.10;74.80;;;;;;5011602;28;20390;-66
2020/12/08 04:44:21;;;;;;;21.27;13.23;;;6.00;74.90;;;;;;5009551;28;20445;-66
2020/12/08 04:46:53;;;;;;;22.77;12.40;;;6.10;75.00;;;;;;5028037;28;20118;-66
2020/12/08 04:49:20;;;;;;;21.50;12.47;;;6.10;74.90;;;;;;5021177;28;20152;-66
2020/12/08 04:51:46;;;;;;;20.90;12.93;;;6.10;74.90;;;;;;5023083;28;20034;-65
2020/12/08 04:54:11;;;;;;;25.57;15.40;;;6.10;75.00;;;;;;5010265;28;20368;-65
2020/12/08 04:56:37;;;;;;;24.47;13.83;;;6.10;75.00;;;;;;5016276;28;20388;-66
2020/12/08 04:59:03;;;;;;;22.23;13.87;;;6.10;74.90;;;;;;5028764;28;20060;-65
2020/12/08 05:01:28;;;;;;;22.80;14.13;;;6.20;75.00;;;;;;5019028;28;20048;-66
2020/12/08 05:04:01;;;;;;;22.47;14.20;;;6.20;74.90;;;;;;5016730;28;20049;-65
2020/12/08 05:06:28;;;;;;;25.03;14.97;;;6.30;74.90;;;;;;5011110;28;20048;-65
2020/12/08 05:09:08;;;;;;;33.20;15.13;;;6.30;74.90;;;;;;5017770;28;20037;-64
2020/12/08 05:11:34;;;;;;;23.17;14.07;;;6.30;74.80;;;;;;5025909;28;20034;-65
2020/12/08 05:14:04;;;;;;;25.83;14.70;;;6.30;74.90;;;;;;5027566;28;20049;-66
2020/12/08 05:16:31;;;;;;;20.70;14.03;;;6.20;74.90;;;;;;5024791;28;20107;-66
2020/12/08 05:19:06;;;;;;;27.47;16.37;;;6.20;75.20;;;;;;5027697;28;20037;-65
2020/12/08 05:21:32;;;;;;;22.23;14.73;;;6.10;75.30;;;;;;5028224;28;20021;-65
2020/12/08 05:23:57;;;;;;;24.13;15.37;;;6.10;75.40;;;;;;5025418;28;20060;-65
2020/12/08 05:26:23;;;;;;;26.33;15.50;;;6.10;75.40;;;;;;5014314;28;20041;-65
2020/12/08 05:28:58;;;;;;;21.13;15.33;;;6.10;75.40;;;;;;5025031;28;20067;-65
2020/12/08 05:31:28;;;;;;;21.53;14.10;;;6.10;75.40;;;;;;5011743;28;20029;-65
2020/12/08 05:34:02;;;;;;;23.50;14.67;;;6.10;75.40;;;;;;5011630;28;20072;-65
2020/12/08 05:36:28;;;;;;;22.93;14.90;;;6.10;75.40;;;;;;5018862;28;20048;-65
2020/12/08 05:39:02;;;;;;;21.43;13.70;;;6.10;75.30;;;;;;5014865;28;20170;-66
2020/12/08 05:41:31;;;;;;;21.17;13.93;;;6.10;75.20;;;;;;5014547;28;20038;-65
2020/12/08 05:44:06;;;;;;;23.27;14.60;;;6.20;75.20;;;;;;5019113;28;20046;-65
2020/12/08 05:46:42;;;;;;;20.80;13.40;;;6.20;75.20;;;;;;5017432;28;20075;-66
2020/12/08 05:49:10;;;;;;;25.27;14.53;;;6.20;75.10;;;;;;5010385;28;20052;-65
2020/12/08 05:51:40;;;;;;;20.90;13.70;;;6.30;75.00;;;;;;5009708;28;20034;-65
2020/12/08 05:54:06;;;;;;;23.67;13.80;;;6.30;74.80;;;;;;5021763;28;20038;-66
2020/12/08 05:56:35;;;;;;;23.63;15.40;;;6.30;74.70;;;;;;5016599;28;20037;-66
2020/12/08 05:59:00;;;;;;;23.90;14.07;;;6.30;74.70;;;;;;5011850;28;20103;-65
2020/12/08 06:01:26;;;;;;;24.70;13.80;;;6.40;74.60;;;;;;5014861;28;20436;-65
2020/12/08 06:03:55;;;;;;;24.93;15.77;;;6.40;74.60;;;;;;5026889;28;20538;-65
2020/12/08 06:06:21;;;;;;;23.80;14.23;;;6.30;74.60;;;;;;5033015;28;20168;-65
2020/12/08 06:08:48;;;;;;;25.57;15.20;;;6.30;74.70;;;;;;5020112;28;20444;-65
2020/12/08 06:11:15;;;;;;;22.50;14.63;;;6.30;74.80;;;;;;5031883;28;20470;-65
2020/12/08 06:13:46;;;;;;;24.37;14.93;;;6.40;74.90;;;;;;5021793;28;20610;-65
2020/12/08 06:16:19;;;;;;;23.17;14.17;;;6.40;74.90;;;;;;5028088;28;20167;-65
2020/12/08 06:18:45;;;;;;;;;;;6.40;75.50;;;;;;5023037;28;20033;-66
2020/12/08 06:21:20;;;;;;;25.53;16.20;;;6.40;74.70;;;;;;5033284;28;19996;-66
2020/12/08 06:23:47;;;;;;;26.20;16.27;;;6.40;74.90;;;;;;5031475;28;20056;-65
2020/12/08 06:26:19;;;;;;;22.27;14.13;;;6.40;75.00;;;;;;5031952;28;20033;-65
2020/12/08 06:28:45;;;;;;;24.23;15.07;;;6.40;75.10;;;;;;5018623;28;20499;-66
2020/12/08 06:31:11;;;;;;;22.70;15.53;;;6.50;75.10;;;;;;5024772;28;20037;-66
2020/12/08 06:33:48;;;;;;;24.30;15.83;;;6.40;75.00;;;;;;5016169;28;20041;-66
2020/12/08 06:36:15;;;;;;;25.07;16.03;;;6.40;75.10;;;;;;5016299;28;20066;-65
2020/12/08 06:38:41;;;;;;;26.10;16.10;;;6.40;75.10;;;;;;5015915;28;20065;-66
2020/12/08 06:41:06;;;;;;;27.03;14.80;;;6.40;75.20;;;;;;5032708;28;20030;-65
2020/12/08 06:43:37;;;;;;;27.50;17.87;;;6.40;75.20;;;;;;5021620;28;20038;-66
2020/12/08 06:46:10;;;;;;;26.67;16.90;;;6.40;75.40;;;;;;5015011;28;20022;-65
2020/12/08 06:48:36;;;;;;;25.40;14.83;;;6.40;75.40;;;;;;5022731;28;20794;-66
2020/12/08 06:51:04;;;;;;;27.97;16.33;;;6.40;75.50;;;;;;5019948;28;20033;-66
2020/12/08 06:53:29;;;;;;;29.10;16.90;;;6.40;75.60;;;;;;5019950;28;20129;-66
2020/12/08 06:55:55;;;;;;;27.67;16.53;;;6.50;75.60;;;;;;5019698;28;20124;-66
2020/12/08 06:58:21;;;;;;;27.60;16.80;;;6.50;75.50;;;;;;5017901;28;20029;-66
2020/12/08 07:00:46;;;;;;;26.33;15.73;;;6.50;75.50;;;;;;5019672;28;20034;-66
2020/12/08 07:03:14;;;;;;;25.60;16.83;;;6.50;75.50;;;;;;5022530;28;20033;-66
2020/12/08 07:05:40;;;;;;;25.60;16.27;;;6.50;75.50;;;;;;5023192;28;20537;-65
2020/12/08 07:08:08;;;;;;;24.07;15.87;;;6.50;75.60;;;;;;5022654;28;20025;-66
2020/12/08 07:10:38;;;;;;;24.97;15.60;;;6.50;75.60;;;;;;5022228;28;20036;-65
2020/12/08 07:13:10;;;;;;;21.87;15.03;;;6.50;75.60;;;;;;5019768;28;20387;-66
2020/12/08 07:15:36;;;;;;;25.93;16.33;;;6.50;75.50;;;;;;5019126;28;20108;-65
2020/12/08 07:18:04;;;;;;;24.03;15.17;;;8.00;76.40;;;;;;5018369;28;20093;-65
2020/12/08 07:20:30;;;;;;;23.20;15.10;;;6.50;75.60;;;;;;5018736;28;20033;-66
2020/12/08 07:22:56;;;;;;;27.97;17.50;;;6.50;75.60;;;;;;5020005;28;20475;-65
2020/12/08 07:25:22;;;;;;;27.00;17.27;;;6.50;75.60;;;;;;5015265;28;20106;-65
2020/12/08 07:27:55;;;;;;;25.27;15.77;;;6.60;75.60;;;;;;5017355;28;20033;-65
2020/12/08 07:30:23;;;;;;;26.17;16.27;;;6.60;75.60;;;;;;5023806;28;20091;-65
2020/12/08 07:32:49;;;;;;;24.70;15.77;;;6.60;75.50;;;;;;5013456;28;20033;-65
2020/12/08 07:35:28;;;;;;;26.77;17.10;;;6.70;75.50;;;;;;5024265;28;20034;-65
2020/12/08 07:37:56;;;;;;;28.43;18.13;;;6.70;75.40;;;;;;5020107;28;20149;-69
2020/12/08 07:40:22;;;;;;;26.17;17.40;;;6.70;75.40;;;;;;5027596;28;20037;-65
2020/12/08 07:42:51;;;;;;;32.00;18.00;;;6.80;75.30;;;;;;5030813;28;20101;-64
2020/12/08 07:45:18;;;;;;;27.10;17.60;;;6.80;75.20;;;;;;5009794;28;20051;-67
2020/12/08 07:47:46;;;;;;;25.83;15.80;;;6.80;75.20;;;;;;5025216;28;20152;-66
2020/12/08 07:50:24;;;;;;;27.30;17.83;;;6.80;75.10;;;;;;5024919;28;20034;-66
2020/12/08 07:52:58;;;;;;;33.53;18.47;;;6.90;75.10;;;;;;5025481;28;20044;-68
2020/12/08 07:55:24;;;;;;;26.60;17.67;;;6.90;75.20;;;;;;5026466;28;20029;-67
2020/12/08 07:57:50;;;;;;;28.53;17.83;;;6.90;75.20;;;;;;5023031;28;20060;-68
2020/12/08 08:00:15;;;;;;;28.13;16.73;;;6.80;75.20;;;;;;5009269;28;20044;-67
2020/12/08 08:02:41;;;;;;;26.43;17.30;;;6.90;75.30;;;;;;5024277;28;20093;-69
2020/12/08 08:05:07;;;;;;;28.33;18.67;;;6.80;75.30;;;;;;5021626;28;20133;-71
2020/12/08 08:07:32;;;;;;;26.37;17.23;;;6.90;75.30;;;;;;5037469;28;20482;-68
2020/12/08 08:09:58;;;;;;;26.23;16.83;;;6.90;75.30;;;;;;5019895;28;20032;-69
2020/12/08 08:12:25;;;;;;;29.07;18.03;;;6.90;75.20;;;;;;5021689;28;20055;-68
2020/12/08 08:14:51;;;;;;;26.60;17.07;;;6.90;75.40;;;;;;5023219;28;20118;-69
2020/12/08 08:17:17;;;;;;;26.00;17.83;;;6.90;75.40;;;;;;5024619;28;20587;-68
2020/12/08 08:19:42;;;;;;;28.47;18.07;;;6.90;75.40;;;;;;5003676;28;20617;-68
2020/12/08 08:22:08;;;;;;;26.77;18.47;;;7.00;75.30;;;;;;4992774;28;20038;-68
2020/12/08 08:24:34;;;;;;;27.77;17.53;;;7.00;75.10;;;;;;5023773;28;20055;-68
2020/12/08 08:26:59;;;;;;;25.93;17.23;;;7.00;75.00;;;;;;5030073;28;20370;-68
2020/12/08 08:29:25;;;;;;;26.20;17.20;;;7.10;75.00;;;;;;5022993;28;20489;-67
2020/12/08 08:31:51;;;;;;;27.07;17.37;;;7.10;74.90;;;;;;5019987;28;20471;-68
2020/12/08 08:34:16;;;;;;;27.50;18.57;;;7.20;74.80;;;;;;5023000;28;20115;-68
2020/12/08 08:36:53;;;;;;;31.50;18.10;;;7.20;74.70;;;;;;5007531;28;20752;-67
2020/12/08 08:39:19;;;;;;;27.40;17.40;;;7.30;74.60;;;;;;5024622;28;20040;-67
2020/12/08 08:41:45;;;;;;;28.80;18.40;;;7.30;74.50;;;;;;5020218;28;20069;-68
2020/12/08 08:44:10;;;;;;;27.10;18.37;;;7.30;74.50;;;;;;5023226;28;20379;-70
2020/12/08 08:46:41;;;;;;;25.37;17.23;;;7.20;74.60;;;;;;5007494;28;20080;-70
2020/12/08 08:49:08;;;;;;;27.45;17.42;;;7.20;74.80;;;;;;5029435;28;20109;-67
2020/12/08 08:51:36;;;;;;;29.70;19.10;;;7.20;74.80;;;;;;5029446;28;20033;-67
2020/12/08 08:54:02;;;;;;;26.33;17.73;;;7.20;74.80;;;;;;5024463;28;20033;-67
2020/12/08 08:56:28;;;;;;;28.90;18.50;;;7.20;74.70;;;;;;5021363;28;20040;-67
2020/12/08 08:58:53;;;;;;;30.38;19.83;;;7.30;74.70;;;;;;5032347;28;20037;-66
2020/12/08 09:01:19;;;;;;;29.55;19.15;;;7.30;74.70;;;;;;5026280;28;21042;-67
2020/12/08 09:03:45;;;;;;;30.63;18.35;;;7.30;74.60;;;;;;5025163;28;20514;-67
2020/12/08 09:06:12;;;;;;;30.83;19.57;;;7.40;74.60;;;;;;5021326;28;20033;-68
2020/12/08 09:08:38;;;;;;;28.77;18.83;;;7.40;74.60;;;;;;5030722;28;20370;-67
2020/12/08 09:11:04;;;;;;;29.13;19.17;;;7.40;74.70;;;;;;5019833;28;20034;-66
2020/12/08 09:13:30;;;;;;;27.20;17.93;;;7.40;74.70;;;;;;5026917;28;20040;-68
2020/12/08 09:15:55;;;;;;;29.80;18.13;;;7.40;74.60;;;;;;5026074;28;20059;-68
2020/12/08 09:18:21;;;;;;;27.97;17.97;;;7.40;74.50;;;;;;5031265;28;20128;-67
2020/12/08 09:20:47;;;;;;;26.40;16.27;;;7.50;74.50;;;;;;5022341;28;20113;-68
2020/12/08 09:23:13;;;;;;;28.17;19.17;;;7.50;74.40;;;;;;5014826;28;20089;-69
2020/12/08 09:25:39;;;;;;;24.90;16.25;;;7.50;74.40;;;;;;5024251;28;20064;-67
2020/12/08 09:28:05;;;;;;;27.40;17.53;;;7.50;74.40;;;;;;5009239;28;20452;-67
2020/12/08 09:30:30;;;;;;;26.47;16.00;;;7.50;74.40;;;;;;5024011;28;20024;-69
2020/12/08 09:32:56;;;;;;;25.67;15.73;;;7.60;74.40;;;;;;5028896;28;20482;-69
2020/12/08 09:35:22;;;;;;;24.77;16.42;;;7.70;74.30;;;;;;5022626;28;20042;-68
2020/12/08 09:37:47;;;;;;;25.97;17.70;;;7.70;74.10;;;;;;5024317;28;20163;-66
2020/12/08 09:40:13;;;;;;;28.37;18.90;;;7.70;74.00;;;;;;5030695;28;20045;-66
2020/12/08 09:42:40;;;;;;;26.23;17.50;;;7.70;74.10;;;;;;5029625;28;20061;-67
2020/12/08 09:45:07;;;;;;;24.93;16.03;;;7.80;74.20;;;;;;5026199;28;20034;-67
2020/12/08 09:47:33;;;;;;;27.30;18.07;;;7.80;74.20;;;;;;5023197;28;20021;-67
2020/12/08 09:49:59;;;;;;;24.43;16.30;;;7.80;74.10;;;;;;5021449;28;20195;-68
2020/12/08 09:52:30;;;;;;;29.50;16.93;;;7.80;74.10;;;;;;5012925;28;20038;-68
2020/12/08 09:54:56;;;;;;;27.10;17.20;;;7.90;73.90;;;;;;5020797;28;20083;-70
2020/12/08 09:57:24;;;;;;;25.63;16.47;;;8.00;73.80;;;;;;5016594;28;20124;-68
2020/12/08 09:59:50;;;;;;;25.57;17.27;;;8.00;73.70;;;;;;5031992;28;20048;-69
2020/12/08 10:02:16;;;;;;;25.90;16.83;;;8.00;73.60;;;;;;5029990;28;20060;-67
2020/12/08 10:04:41;;;;;;;25.87;17.07;;;8.10;73.70;;;;;;5027147;28;20152;-70
2020/12/08 10:07:09;;;;;;;21.20;14.37;;;8.10;73.70;;;;;;5034003;28;20072;-71
2020/12/08 10:09:35;;;;;;;25.55;16.45;;;8.20;73.60;;;;;;5028381;28;20175;-70
2020/12/08 10:12:01;;;;;;;24.33;16.37;;;8.20;73.50;;;;;;5027113;28;20049;-71
2020/12/08 10:14:26;;;;;;;26.48;16.55;;;8.30;73.40;;;;;;5021583;28;20048;-69
2020/12/08 10:16:52;;;;;;;25.23;16.63;;;8.30;73.20;;;;;;5026674;28;20100;-67
2020/12/08 10:19:19;;;;;;;28.17;18.20;;;8.30;73.20;;;;;;5027360;28;20037;-66
2020/12/08 10:21:44;;;;;;;26.80;17.87;;;8.20;73.20;;;;;;5017128;28;20125;-66
2020/12/08 10:24:10;;;;;;;27.13;18.13;;;8.20;73.20;;;;;;5018054;28;20132;-65
2020/12/08 10:26:35;;;;;;;30.10;18.27;;;8.20;73.30;;;;;;5018285;28;20034;-66
2020/12/08 10:29:01;;;;;;;28.07;18.67;;;8.20;73.40;;;;;;5007191;28;20101;-65
2020/12/08 10:31:27;;;;;;;24.80;17.45;;;8.10;73.50;;;;;;5014179;28;20033;-66
2020/12/08 10:33:52;;;;;;;27.87;17.83;;;8.20;73.50;;;;;;5018522;28;20124;-66
2020/12/08 10:36:18;;;;;;;29.10;17.23;;;8.20;73.60;;;;;;5026724;28;20447;-66
2020/12/08 10:38:44;;;;;;;27.40;17.20;;;8.30;73.50;;;;;;5011248;28;20041;-66
2020/12/08 10:41:10;;;;;;;26.02;17.10;;;8.30;73.30;;;;;;5006727;28;20541;-66
2020/12/08 10:43:35;;;;;;;29.50;18.13;;;8.40;73.10;;;;;;5023355;28;20045;-66
2020/12/08 10:46:01;;;;;;;25.90;17.03;;;8.50;73.00;;;;;;5023204;28;20042;-66
2020/12/08 10:48:27;;;;;;;25.37;16.93;;;8.70;72.80;;;;;;5014103;28;20041;-66
2020/12/08 10:50:53;;;;;;;25.27;17.55;;;8.80;72.60;;;;;;5015605;28;20036;-66
2020/12/08 10:53:18;;;;;;;25.52;18.08;;;8.90;72.10;;;;;;5028883;28;20479;-66
2020/12/08 10:55:44;;;;;;;25.30;16.85;;;8.80;71.60;;;;;;5019868;28;20091;-66
2020/12/08 10:58:10;;;;;;;26.67;18.00;;;8.70;71.70;;;;;;5019364;28;20121;-66
2020/12/08 11:00:35;;;;;;;25.95;16.63;;;8.70;71.80;;;;;;5010927;28;20057;-66
2020/12/08 11:03:01;;;;;;;22.80;15.60;;;8.60;71.80;;;;;;5007791;28;20037;-66
2020/12/08 11:05:27;;;;;;;27.35;16.77;;;8.60;72.00;;;;;;5028048;28;20048;-66
2020/12/08 11:07:53;;;;;;;26.63;17.83;;;8.60;72.10;;;;;;5021020;28;20034;-66
2020/12/08 11:10:18;;;;;;;28.35;17.42;;;8.70;72.10;;;;;;5027595;28;20030;-66
2020/12/08 11:12:44;;;;;;;23.17;16.00;;;8.70;72.00;;;;;;5024577;28;20065;-66
2020/12/08 11:15:10;;;;;;;24.77;16.02;;;8.70;72.10;;;;;;5019348;28;20037;-67
2020/12/08 11:17:37;;;;;;;23.05;15.40;;;8.70;72.00;;;;;;5017595;28;20097;-66
2020/12/08 11:20:05;;;;;;;22.40;14.63;;;8.80;71.70;;;;;;5021100;28;20057;-66
2020/12/08 11:22:32;;;;;;;24.85;15.05;;;8.90;71.60;;;;;;5023847;28;20076;-66
2020/12/08 11:25:03;;;;;;;22.05;14.43;;;9.00;71.60;;;;;;5024040;28;20162;-66
2020/12/08 11:27:28;;;;;;;22.88;15.30;;;9.10;71.30;;;;;;5042219;28;20086;-65
2020/12/08 11:29:54;;;;;;;24.52;16.77;;;9.30;71.10;;;;;;5021999;28;20449;-65
2020/12/08 11:32:20;;;;;;;23.17;14.88;;;9.30;70.80;;;;;;5011076;28;20038;-66
2020/12/08 11:34:46;;;;;;;22.67;15.90;;;9.30;70.70;;;;;;5012469;28;20048;-66
2020/12/08 11:37:12;;;;;;;20.92;14.75;;;9.40;70.50;;;;;;5012311;28;20042;-66
2020/12/08 11:39:38;;;;;;;22.90;16.23;;;9.40;70.30;;;;;;5027748;28;20202;-66
2020/12/08 11:42:05;;;;;;;22.45;14.80;;;9.40;70.40;;;;;;5017596;28;20022;-66
2020/12/08 11:44:31;;;;;;;21.95;13.82;;;9.40;70.00;;;;;;5025965;28;20175;-66
2020/12/08 11:46:56;;;;;;;22.70;15.32;;;9.40;69.90;;;;;;5021229;28;20129;-66
2020/12/08 11:49:22;;;;;;;22.55;15.18;;;9.40;70.00;;;;;;5014262;28;20040;-66
2020/12/08 11:51:48;;;;;;;18.92;13.35;;;9.40;70.00;;;;;;5003982;28;20042;-66
2020/12/08 11:54:14;;;;;;;22.95;15.55;;;9.40;69.90;;;;;;5008187;28;20476;-65
2020/12/08 11:56:40;;;;;;;25.48;16.38;;;9.40;69.90;;;;;;5025574;28;20080;-65
2020/12/08 11:59:05;;;;;;;23.40;15.18;;;9.40;69.80;;;;;;5023407;28;20025;-65
2020/12/08 12:01:31;;;;;;;22.95;15.48;;;9.40;69.80;;;;;;5027368;28;20053;-65
2020/12/08 12:03:57;;;;;;;23.15;14.43;;;9.40;69.50;;;;;;5011844;28;20045;-65
2020/12/08 12:06:23;;;;;;;26.10;15.38;;;9.30;69.70;;;;;;5015428;28;20029;-65
2020/12/08 12:08:49;;;;;;;25.90;17.45;;;9.30;69.70;;;;;;5011705;28;20131;-65
2020/12/08 12:11:15;;;;;;;24.45;15.68;;;9.30;69.70;;;;;;5025290;28;20400;-66
2020/12/08 12:13:41;;;;;;;23.73;14.23;;;9.40;69.80;;;;;;5015279;28;20439;-66
2020/12/08 12:16:06;;;;;;;23.63;16.88;;;9.50;69.50;;;;;;5022232;28;20033;-66
2020/12/08 12:18:32;;;;;;;20.30;14.48;;;9.50;69.50;;;;;;5020085;28;20034;-66
2020/12/08 12:20:58;;;;;;;22.50;14.55;;;9.50;69.40;;;;;;5014605;28;20042;-66
2020/12/08 12:23:24;;;;;;;24.73;17.08;;;9.60;69.40;;;;;;5019150;28;20093;-66
2020/12/08 12:25:49;;;;;;;38.20;16.23;;;9.60;69.20;;;;;;5017771;28;20115;-66
2020/12/08 12:28:15;;;;;;;23.85;15.75;;;9.60;69.00;;;;;;5020675;28;20348;-66
2020/12/08 12:30:41;;;;;;;22.60;15.18;;;9.60;69.00;;;;;;4999979;28;20040;-66
2020/12/08 12:33:06;;;;;;;24.08;15.82;;;9.60;68.70;;;;;;5026003;28;20425;-66
2020/12/08 12:35:32;;;;;;;24.83;15.80;;;9.60;68.90;;;;;;5018494;28;20030;-66